Time;durP1;ratioP1;P1;durP2;ratioP2;P2;SDS_P1;SDS_P2;PMS_P1;PMS_P2;Temp;Humidity;BMP_temperature;BMP_pressure;BME280_temperature;BME280_humidity;BME280_pressure;Samples;Min_cycle;Max_cycle;Signal;HPM_P1;HPM_P2
2022/04/15 00:02:20;;;;;;;;;;;10.80;99.90;;;;;;5061399;28;19924;-83
2022/04/15 00:04:46;;;;;;;;;;;10.80;99.90;;;;;;5036794;28;19921;-83
2022/04/15 00:07:11;;;;;;;;;;;10.80;99.90;;;;;;5055573;28;19916;-83
2022/04/15 00:09:37;;;;;;;;;;;10.80;99.90;;;;;;5062052;28;20561;-83
2022/04/15 00:12:07;;;;;;;;;;;10.80;99.90;;;;;;5043985;28;19928;-83
2022/04/15 00:14:35;;;;;;;;;;;10.80;99.90;;;;;;5060583;28;19916;-83
2022/04/15 00:17:00;;;;;;;;;;;10.80;99.90;;;;;;5061062;28;19920;-83
2022/04/15 00:19:26;;;;;;;;;;;10.70;99.90;;;;;;5060306;28;20399;-83
2022/04/15 00:21:52;;;;;;;;;;;10.70;99.90;;;;;;5036008;28;20007;-83
2022/04/15 00:24:17;;;;;;;;;;;10.70;99.90;;;;;;5064066;28;20058;-83
2022/04/15 00:26:43;;;;;;;;;;;10.70;99.90;;;;;;5061438;28;19951;-83
2022/04/15 00:29:08;;;;;;;;;;;10.70;99.90;;;;;;5055653;28;20458;-83
2022/04/15 00:31:34;;;;;;;;;;;10.60;99.90;;;;;;5060779;28;20070;-83
2022/04/15 00:34:00;;;;;;;;;;;10.60;99.90;;;;;;5057551;28;20377;-83
2022/04/15 00:36:26;;;;;;;;;;;10.60;99.90;;;;;;5078560;28;19920;-84
2022/04/15 00:38:51;;;;;;;;;;;10.50;99.90;;;;;;5067708;28;19947;-84
2022/04/15 00:41:17;;;;;;;;;;;10.50;99.90;;;;;;5071450;28;19928;-84
2022/04/15 00:43:42;;;;;;;;;;;10.40;99.90;;;;;;5041805;28;19932;-85
2022/04/15 00:46:08;;;;;;;;;;;10.40;99.90;;;;;;5055898;28;20368;-85
2022/04/15 00:48:49;;;;;;;;;;;10.40;99.90;;;;;;5121013;27;19921;-81
2022/04/15 00:51:15;;;;;;;;;;;10.40;99.90;;;;;;5067409;28;19930;-81
2022/04/15 00:53:42;;;;;;;;;;;10.40;99.90;;;;;;5067693;28;19921;-81
2022/04/15 00:56:08;;;;;;;;;;;10.40;99.90;;;;;;5068451;28;19923;-81
2022/04/15 00:58:35;;;;;;;;;;;10.40;99.90;;;;;;5067041;28;19913;-81
2022/04/15 01:01:01;;;;;;;;;;;10.40;99.90;;;;;;5066936;28;19920;-81
2022/04/15 01:03:28;;;;;;;;;;;10.40;99.90;;;;;;5050546;28;19923;-81
2022/04/15 01:05:55;;;;;;;;;;;10.30;99.90;;;;;;5083833;28;19917;-81
2022/04/15 01:08:22;;;;;;;;;;;10.30;99.90;;;;;;5066511;28;20236;-81
2022/04/15 01:10:48;;;;;;;;;;;10.30;99.90;;;;;;5067017;28;19964;-81
2022/04/15 01:13:14;;;;;;;;;;;10.30;99.90;;;;;;5067484;28;19916;-80
2022/04/15 01:15:40;;;;;;;;;;;10.20;99.90;;;;;;5068258;28;19920;-81
2022/04/15 01:18:05;;;;;;;;;;;10.20;99.90;;;;;;5067743;28;20081;-81
2022/04/15 01:20:31;;;;;;;;;;;10.10;99.90;;;;;;5067418;28;20408;-81
2022/04/15 01:23:02;;;;;;;;;;;10.10;99.90;;;;;;5085855;28;19967;-81
2022/04/15 01:25:28;;;;;;;;;;;9.90;99.90;;;;;;5066275;28;20333;-81
2022/04/15 01:27:57;;;;;;;;;;;9.90;99.90;;;;;;5071270;28;19928;-81
2022/04/15 01:30:22;;;;;;;;;;;9.90;99.90;;;;;;5065498;28;19920;-81
2022/04/15 01:32:48;;;;;;;;;;;9.90;99.90;;;;;;5070209;28;19920;-81
2022/04/15 01:35:15;;;;;;;;;;;9.80;99.90;;;;;;5065885;28;19967;-81
2022/04/15 01:37:41;;;;;;;;;;;9.80;99.90;;;;;;5048977;28;19920;-81
2022/04/15 01:40:07;;;;;;;;;;;9.80;99.90;;;;;;5070471;28;20390;-81
2022/04/15 01:42:34;;;;;;;;;;;9.80;99.90;;;;;;5072763;28;19917;-81
2022/04/15 01:45:00;;;;;;;;;;;9.70;99.90;;;;;;5084432;28;19995;-81
2022/04/15 01:47:26;;;;;;;;;;;9.70;99.90;;;;;;5079483;28;19924;-81
2022/04/15 01:49:52;;;;;;;;;;;9.60;99.90;;;;;;5081769;28;19912;-81
2022/04/15 01:52:18;;;;;;;;;;;9.50;99.90;;;;;;5074534;28;19915;-81
2022/04/15 01:54:44;;;;;;;;;;;9.50;99.90;;;;;;5072210;28;19919;-81
2022/04/15 01:57:11;;;;;;;;;;;9.50;99.90;;;;;;5071995;28;19913;-81
2022/04/15 01:59:37;;;;;;;;;;;9.50;99.90;;;;;;5061558;28;19948;-81
2022/04/15 02:02:04;;;;;;;;;;;9.50;99.90;;;;;;5058572;28;20367;-81
2022/04/15 02:04:30;;;;;;;;;;;9.50;99.90;;;;;;5058182;28;19913;-81
2022/04/15 02:06:56;;;;;;;;;;;9.50;99.90;;;;;;5058863;28;19916;-81
2022/04/15 02:09:21;;;;;;;;;;;9.50;99.90;;;;;;5058310;28;20329;-81
2022/04/15 02:11:47;;;;;;;;;;;9.50;99.90;;;;;;5041363;28;19924;-81
2022/04/15 02:14:13;;;;;;;;;;;9.40;99.90;;;;;;5057567;28;19909;-81
2022/04/15 02:16:39;;;;;;;;;;;9.40;99.90;;;;;;5056767;28;19928;-81
2022/04/15 02:19:04;;;;;;;;;;;9.30;99.90;;;;;;5040914;28;19917;-81
2022/04/15 02:21:30;;;;;;;;;;;9.30;99.90;;;;;;5056870;28;19913;-81
2022/04/15 02:23:55;;;;;;;;;;;9.30;99.90;;;;;;5057157;28;19975;-81
2022/04/15 02:26:21;;;;;;;;;;;9.20;99.90;;;;;;5040657;28;20379;-81
2022/04/15 02:28:47;;;;;;;;;;;9.20;99.90;;;;;;5039218;28;20023;-81
2022/04/15 02:31:12;;;;;;;;;;;9.20;99.90;;;;;;5057620;28;19931;-81
2022/04/15 02:33:38;;;;;;;;;;;9.10;99.90;;;;;;5039248;28;20024;-81
2022/04/15 02:36:03;;;;;;;;;;;9.20;99.90;;;;;;5038248;28;19917;-81
2022/04/15 02:38:29;;;;;;;;;;;9.10;99.90;;;;;;5041283;28;19916;-81
2022/04/15 02:40:54;;;;;;;;;;;9.10;99.90;;;;;;5057796;28;19959;-81
2022/04/15 02:43:20;;;;;;;;;;;9.10;99.90;;;;;;5057732;28;19963;-81
2022/04/15 02:45:46;;;;;;;;;;;9.10;99.90;;;;;;5057620;28;19915;-81
2022/04/15 02:48:12;;;;;;;;;;;9.00;99.90;;;;;;5040000;28;19924;-81
2022/04/15 02:50:39;;;;;;;;;;;9.00;99.90;;;;;;5057084;28;19916;-81
2022/04/15 02:53:05;;;;;;;;;;;9.00;99.90;;;;;;5045472;28;20494;-81
2022/04/15 02:55:31;;;;;;;;;;;8.90;99.90;;;;;;5039749;28;19927;-81
2022/04/15 02:57:56;;;;;;;;;;;8.90;99.90;;;;;;5060581;28;20485;-81
2022/04/15 03:00:22;;;;;;;;;;;8.90;99.90;;;;;;5039411;28;19917;-81
2022/04/15 03:02:47;;;;;;;;;;;8.90;99.90;;;;;;5044004;28;19952;-81
2022/04/15 03:05:13;;;;;;;;;;;8.90;99.90;;;;;;5039567;28;19923;-81
2022/04/15 03:07:39;;;;;;;;;;;8.90;99.90;;;;;;5042621;28;19927;-81
2022/04/15 03:10:05;;;;;;;;;;;9.00;99.90;;;;;;5053926;28;19912;-81
2022/04/15 03:12:34;;;;;;;;;;;9.00;99.90;;;;;;5055222;28;19917;-81
2022/04/15 03:15:00;;;;;;;;;;;9.00;99.90;;;;;;5055236;28;20327;-81
2022/04/15 03:17:25;;;;;;;;;;;9.10;99.90;;;;;;5041057;28;19955;-81
2022/04/15 03:19:51;;;;;;;;;;;9.10;99.90;;;;;;5054566;28;20187;-81
2022/04/15 03:22:17;;;;;;;;;;;9.10;99.90;;;;;;5037633;28;20392;-81
2022/04/15 03:24:42;;;;;;;;;;;9.10;99.90;;;;;;5054981;28;19913;-81
2022/04/15 03:27:08;;;;;;;;;;;9.10;99.90;;;;;;5036960;28;19921;-81
2022/04/15 03:29:33;;;;;;;;;;;9.10;99.90;;;;;;5056475;28;19952;-81
2022/04/15 03:31:59;;;;;;;;;;;9.10;99.90;;;;;;5036827;28;19921;-81
2022/04/15 03:34:25;;;;;;;;;;;9.20;99.90;;;;;;5039970;28;19925;-81
2022/04/15 03:36:50;;;;;;;;;;;9.20;99.90;;;;;;5034190;28;20584;-81
2022/04/15 03:39:15;;;;;;;;;;;9.20;99.90;;;;;;5033643;28;20342;-80
2022/04/15 03:41:41;;;;;;;;;;;9.30;99.90;;;;;;5033941;28;20375;-81
2022/04/15 03:44:07;;;;;;;;;;;9.30;99.90;;;;;;5034800;28;19917;-81
2022/04/15 03:46:34;;;;;;;;;;;9.30;99.90;;;;;;5049740;28;19924;-81
2022/04/15 03:48:59;;;;;;;;;;;9.30;99.90;;;;;;5050220;28;19967;-81
2022/04/15 03:51:25;;;;;;;;;;;9.30;99.90;;;;;;5050020;28;19948;-81
2022/04/15 03:53:51;;;;;;;;;;;9.30;99.90;;;;;;5033834;28;19974;-80
2022/04/15 03:56:16;;;;;;;;;;;9.20;99.90;;;;;;5050114;28;19921;-81
2022/04/15 03:58:42;;;;;;;;;;;9.20;99.90;;;;;;5032591;28;19940;-81
2022/04/15 04:01:07;;;;;;;;;;;9.20;99.90;;;;;;5033305;28;20363;-81
2022/04/15 04:03:33;;;;;;;;;;;9.10;99.90;;;;;;5033186;28;19917;-81
2022/04/15 04:05:58;;;;;;;;;;;9.10;99.90;;;;;;5049509;28;19921;-80
2022/04/15 04:08:24;;;;;;;;;;;9.10;99.90;;;;;;5049502;28;19924;-81
2022/04/15 04:10:49;;;;;;;;;;;9.10;99.90;;;;;;5033405;28;19917;-81
2022/04/15 04:13:15;;;;;;;;;;;9.10;99.90;;;;;;5050950;28;19917;-80
2022/04/15 04:15:40;;;;;;;;;;;9.00;99.90;;;;;;5049160;28;19916;-81
2022/04/15 04:18:06;;;;;;;;;;;9.00;99.90;;;;;;5049516;28;19913;-81
2022/04/15 04:20:32;;;;;;;;;;;9.00;99.90;;;;;;5032548;28;20451;-81
2022/04/15 04:22:58;;;;;;;;;;;9.00;99.90;;;;;;5049167;28;19913;-80
2022/04/15 04:25:23;;;;;;;;;;;9.00;99.90;;;;;;5050812;28;20295;-81
2022/04/15 04:27:49;;;;;;;;;;;9.00;99.90;;;;;;5051931;28;19920;-81
2022/04/15 04:30:15;;;;;;;;;;;9.00;99.90;;;;;;5051844;28;19913;-81
2022/04/15 04:32:41;;;;;;;;;;;9.10;99.90;;;;;;5050912;28;20184;-81
2022/04/15 04:35:07;;;;;;;;;;;9.00;99.90;;;;;;5050112;28;20290;-81
2022/04/15 04:37:33;;;;;;;;;;;9.00;99.90;;;;;;5050418;28;19974;-81
2022/04/15 04:39:59;;;;;;;;;;;9.00;99.90;;;;;;5058482;28;20371;-81
2022/04/15 04:42:26;;;;;;;;;;;9.00;99.90;;;;;;5032082;28;19948;-81
2022/04/15 04:44:51;;;;;;;;;;;9.00;99.90;;;;;;5032589;28;20397;-81
2022/04/15 04:47:18;;;;;;;;;;;9.00;99.90;;;;;;5048712;28;19923;-81
2022/04/15 04:49:44;;;;;;;;;;;9.00;99.90;;;;;;5049178;28;19920;-81
2022/04/15 04:52:10;;;;;;;;;;;9.00;99.90;;;;;;5032318;28;19920;-81
2022/04/15 04:54:35;;;;;;;;;;;9.00;99.90;;;;;;5049334;28;19920;-81
2022/04/15 04:57:01;;;;;;;;;;;9.00;99.90;;;;;;5050592;23;19957;-84
2022/04/15 04:59:28;;;;;;;;;;;9.10;99.90;;;;;;4994429;28;19921;-83
2022/04/15 05:01:53;;;;;;;;;;;9.20;99.90;;;;;;5017747;28;19963;-84
2022/04/15 05:04:19;;;;;;;;;;;9.20;99.90;;;;;;5013585;28;19992;-84
2022/04/15 05:06:44;;;;;;;;;;;9.30;99.90;;;;;;4991522;28;19921;-83
2022/04/15 05:09:10;;;;;;;;;;;9.30;99.90;;;;;;5007283;28;19988;-86
2022/04/15 05:11:35;;;;;;;;;;;9.30;99.90;;;;;;4994066;28;19917;-86
2022/04/15 05:14:01;;;;;;;;;;;9.40;99.90;;;;;;5015618;28;20375;-82
2022/04/15 05:16:26;;;;;;;;;;;9.50;99.90;;;;;;5007308;28;19921;-85
2022/04/15 05:18:52;;;;;;;;;;;9.60;99.90;;;;;;5021959;28;19959;-84
2022/04/15 05:21:17;;;;;;;;;;;9.70;99.90;;;;;;5002085;28;20373;-84
2022/04/15 05:23:45;;;;;;;;;;;9.80;99.90;;;;;;5019576;28;19921;-83
2022/04/15 05:26:11;;;;;;;;;;;9.90;99.90;;;;;;5018291;28;19913;-83
2022/04/15 05:28:37;;;;;;;;;;;10.10;99.90;;;;;;4995334;28;20387;-86
2022/04/15 05:31:03;;;;;;;;;;;10.10;99.90;;;;;;5006743;28;20197;-84
2022/04/15 05:33:28;;;;;;;;;;;10.20;99.90;;;;;;5023150;28;19925;-85
2022/04/15 05:35:54;;;;;;;;;;;10.30;99.90;;;;;;5016835;28;19994;-87
2022/04/15 05:38:19;;;;;;;;;;;10.30;99.90;;;;;;5003687;28;19929;-84
2022/04/15 05:40:45;;;;;;;;;;;10.30;99.90;;;;;;5026566;28;20385;-84
2022/04/15 05:43:10;;;;;;;;;;;10.40;99.90;;;;;;4996288;28;19944;-85
2022/04/15 05:45:36;;;;;;;;;;;10.40;99.90;;;;;;5003995;28;19917;-87
2022/04/15 05:48:01;;;;;;;;;;;10.50;99.90;;;;;;5014090;28;19928;-84
2022/04/15 05:50:27;;;;;;;;;;;10.60;99.90;;;;;;5005517;28;19972;-86
2022/04/15 05:52:52;;;;;;;;;;;10.60;99.90;;;;;;5022778;28;19921;-84
2022/04/15 05:55:18;;;;;;;;;;;10.70;99.90;;;;;;5015456;28;19913;-83
2022/04/15 05:57:43;;;;;;;;;;;10.80;99.90;;;;;;5003181;28;19922;-84
2022/04/15 06:00:09;;;;;;;;;;;10.80;99.90;;;;;;5012015;28;21302;-86
2022/04/15 06:02:35;;;;;;;;;;;10.90;99.90;;;;;;5011695;28;19914;-85
2022/04/15 06:05:00;;;;;;;;;;;11.00;99.90;;;;;;5025570;28;20411;-85
2022/04/15 06:07:26;;;;;;;;;;;11.00;99.90;;;;;;5009764;28;20256;-86
2022/04/15 06:09:51;;;;;;;;;;;11.00;99.90;;;;;;4999768;28;19941;-84
2022/04/15 06:12:19;;;;;;;;;;;11.00;99.90;;;;;;5018748;28;19918;-85
2022/04/15 06:14:47;;;;;;;;;;;11.10;99.90;;;;;;5000263;28;19953;-85
2022/04/15 06:17:13;;;;;;;;;;;11.10;99.90;;;;;;5022999;28;19987;-85
2022/04/15 06:19:38;;;;;;;;;;;11.20;99.90;;;;;;4995860;28;19922;-86
2022/04/15 06:22:04;;;;;;;;;;;11.30;99.90;;;;;;5022157;28;20402;-86
2022/04/15 06:24:29;;;;;;;;;;;11.30;99.90;;;;;;5007095;28;19922;-86
2022/04/15 06:26:55;;;;;;;;;;;11.40;99.90;;;;;;4999271;28;19922;-85
2022/04/15 06:29:20;;;;;;;;;;;11.50;99.90;;;;;;4999273;28;19946;-84
2022/04/15 06:31:47;;;;;;;;;;;11.50;99.90;;;;;;5013861;28;20332;-86
2022/04/15 06:34:13;;;;;;;;;;;11.60;99.90;;;;;;5020653;28;19918;-85
2022/04/15 06:36:38;;;;;;;;;;;11.60;99.90;;;;;;5009072;28;20033;-85
2022/04/15 06:39:04;;;;;;;;;;;11.60;99.90;;;;;;5012397;28;19921;-85
2022/04/15 06:41:29;;;;;;;;;;;11.70;99.90;;;;;;5023204;28;19953;-85
2022/04/15 06:43:54;;;;;;;;;;;11.80;99.90;;;;;;4994628;28;19969;-85
2022/04/15 06:46:20;;;;;;;;;;;11.90;99.90;;;;;;5007619;28;19922;-85
2022/04/15 06:48:45;;;;;;;;;;;11.90;99.90;;;;;;5024572;28;19953;-86
2022/04/15 06:51:11;;;;;;;;;;;12.00;99.90;;;;;;4993821;28;20008;-85
2022/04/15 06:53:37;;;;;;;;;;;12.20;99.90;;;;;;5026634;28;20065;-84
2022/04/15 06:56:03;;;;;;;;;;;12.30;99.90;;;;;;5016118;28;19928;-85
2022/04/15 06:58:28;;;;;;;;;;;12.40;99.90;;;;;;5005204;28;20006;-85
2022/04/15 07:00:53;;;;;;;;;;;12.50;99.90;;;;;;5010912;28;19965;-86
2022/04/15 07:03:19;;;;;;;;;;;12.70;99.90;;;;;;5012847;28;20015;-84
2022/04/15 07:05:46;;;;;;;;;;;12.70;99.90;;;;;;5019793;28;19913;-86
2022/04/15 07:08:12;;;;;;;;;;;12.90;99.90;;;;;;5011387;28;20283;-83
2022/04/15 07:10:38;;;;;;;;;;;13.00;99.90;;;;;;5002367;28;19925;-86
2022/04/15 07:13:03;;;;;;;;;;;13.00;99.90;;;;;;5024127;28;19914;-85
2022/04/15 07:15:29;;;;;;;;;;;13.10;99.90;;;;;;5021112;28;19961;-85
2022/04/15 07:17:55;;;;;;;;;;;13.10;99.90;;;;;;5019114;28;20358;-82
2022/04/15 07:20:22;;;;;;;;;;;13.30;99.90;;;;;;5028380;28;19929;-84
2022/04/15 07:22:47;;;;;;;;;;;13.30;99.90;;;;;;5007097;28;19949;-85
2022/04/15 07:25:13;;;;;;;;;;;13.40;99.90;;;;;;4996400;28;19919;-86
2022/04/15 07:27:38;;;;;;;;;;;13.40;99.90;;;;;;5003811;28;20289;-84
2022/04/15 07:30:04;;;;;;;;;;;13.50;99.90;;;;;;4995366;28;19976;-85
2022/04/15 07:32:30;;;;;;;;;;;13.60;99.90;;;;;;5021099;28;20281;-84
2022/04/15 07:34:55;;;;;;;;;;;13.70;99.90;;;;;;5002161;28;20008;-84
2022/04/15 07:37:22;;;;;;;;;;;13.80;99.90;;;;;;5007350;28;19943;-84
2022/04/15 07:39:47;;;;;;;;;;;13.90;99.90;;;;;;5006815;28;20012;-85
2022/04/15 07:42:13;;;;;;;;;;;13.90;99.90;;;;;;4995734;28;20414;-86
2022/04/15 07:44:39;;;;;;;;;;;14.00;99.90;;;;;;5000396;28;19944;-85
2022/04/15 07:47:05;;;;;;;;;;;14.10;99.90;;;;;;4997764;28;20286;-85
2022/04/15 07:49:30;;;;;;;;;;;14.20;99.90;;;;;;5002804;28;19924;-86
2022/04/15 07:51:56;;;;;;;;;;;14.30;99.90;;;;;;4996372;28;20410;-86
2022/04/15 07:54:21;;;;;;;;;;;14.40;99.90;;;;;;4988541;28;19986;-86
2022/04/15 07:56:47;;;;;;;;;;;14.50;99.90;;;;;;5001929;28;19934;-86
2022/04/15 07:59:12;;;;;;;;;;;14.60;99.90;;;;;;4988188;28;19918;-86
2022/04/15 08:01:38;;;;;;;;;;;14.70;99.10;;;;;;5003106;28;19918;-86
2022/04/15 08:04:05;;;;;;;;;;;14.80;99.90;;;;;;5005188;28;19914;-86
2022/04/15 08:06:31;;;;;;;;;;;14.90;97.20;;;;;;5014886;28;20287;-86
2022/04/15 08:08:56;;;;;;;;;;;15.10;96.90;;;;;;5007176;28;19972;-86
2022/04/15 08:11:23;;;;;;;;;;;15.20;95.60;;;;;;4990630;28;19922;-86
2022/04/15 08:13:49;;;;;;;;;;;15.20;95.30;;;;;;5016082;28;19959;-86
2022/04/15 08:16:15;;;;;;;;;;;15.30;95.00;;;;;;5008905;28;20330;-86
2022/04/15 08:18:40;;;;;;;;;;;15.30;93.20;;;;;;5014033;28;19976;-86
2022/04/15 08:21:06;;;;;;;;;;;15.30;93.10;;;;;;5010555;28;19913;-86
2022/04/15 08:23:31;;;;;;;;;;;15.30;93.40;;;;;;5015687;28;19913;-86
2022/04/15 08:25:57;;;;;;;;;;;15.40;94.20;;;;;;4997746;28;20008;-86
2022/04/15 08:28:23;;;;;;;;;;;15.50;95.60;;;;;;4997804;28;20016;-86
2022/04/15 08:30:48;;;;;;;;;;;15.60;94.00;;;;;;5015842;28;20362;-85
2022/04/15 08:33:14;;;;;;;;;;;15.70;91.30;;;;;;4973346;28;19965;-87
2022/04/15 08:35:39;;;;;;;;;;;15.80;92.20;;;;;;4984431;28;19987;-86
2022/04/15 08:38:05;;;;;;;;;;;15.90;90.10;;;;;;4975847;28;19917;-85
2022/04/15 08:40:32;;;;;;;;;;;16.00;90.60;;;;;;4990544;28;19975;-85
2022/04/15 08:43:00;;;;;;;;;;;16.10;88.10;;;;;;5015033;28;20563;-86
2022/04/15 08:45:27;;;;;;;;;;;16.10;87.40;;;;;;5016217;28;19944;-85
2022/04/15 08:48:00;;;;;;;;;;;16.20;85.50;;;;;;4993965;28;20016;-86
2022/04/15 08:50:27;;;;;;;;;;;16.30;90.10;;;;;;4995439;28;19918;-85
2022/04/15 08:53:03;;;;;;;;;;;16.30;83.00;;;;;;4997460;28;20497;-85
2022/04/15 08:55:29;;;;;;;;;;;16.40;85.30;;;;;;4995130;28;19914;-85
2022/04/15 08:57:55;;;;;;;;;;;16.40;79.40;;;;;;5004863;28;19933;-86
2022/04/15 09:00:22;;;;;;;;;;;16.50;80.00;;;;;;5011069;28;19926;-85
2022/04/15 09:02:49;;;;;;;;;;;16.50;77.00;;;;;;5019841;28;20374;-85
2022/04/15 09:05:18;;;;;;;;;;;16.70;85.50;;;;;;5004726;28;19914;-85
2022/04/15 09:07:45;;;;;;;;;;;16.70;86.10;;;;;;4988505;28;19969;-86
2022/04/15 09:10:11;;;;;;;;;;;16.80;78.80;;;;;;5014779;28;19918;-86
2022/04/15 09:12:37;;;;;;;;;;;16.90;74.40;;;;;;4995904;28;19960;-85
2022/04/15 09:15:06;;;;;;;;;;;16.90;73.30;;;;;;5023669;28;19914;-84
2022/04/15 09:17:32;;;;;;;;;;;16.80;74.80;;;;;;5000629;28;19918;-86
2022/04/15 09:19:59;;;;;;;;;;;16.70;72.30;;;;;;5017587;28;19953;-85
2022/04/15 09:22:25;;;;;;;;;;;16.60;72.80;;;;;;5020930;28;19918;-84
2022/04/15 09:24:51;;;;;;;;;;;16.70;75.90;;;;;;4995991;28;20336;-84
2022/04/15 09:27:17;;;;;;;;;;;16.70;74.10;;;;;;5016211;28;19948;-84
2022/04/15 09:29:42;;;;;;;;;;;16.80;82.00;;;;;;5017046;28;20302;-84
2022/04/15 09:32:09;;;;;;;;;;;16.90;79.90;;;;;;4996001;28;19929;-84
2022/04/15 09:34:54;;;;;;;;;;;16.90;78.00;;;;;;4991424;28;19918;-84
2022/04/15 09:37:20;;;;;;;;;;;16.90;76.60;;;;;;5006303;28;20037;-85
2022/04/15 09:40:08;;;;;;;;;;;17.00;78.00;;;;;;4996458;28;19924;-85
2022/04/15 09:42:36;;;;;;;;;;;17.00;73.90;;;;;;5008229;28;20028;-85
2022/04/15 09:45:12;;;;;;;;;;;17.00;71.70;;;;;;4999665;28;19993;-84
2022/04/15 09:47:38;;;;;;;;;;;17.00;70.20;;;;;;5008057;28;19932;-85
2022/04/15 09:50:05;;;;;;;;;;;17.10;75.00;;;;;;4993294;28;19918;-86
2022/04/15 09:52:31;;;;;;;;;;;17.30;76.60;;;;;;5012971;28;19918;-84
2022/04/15 09:54:59;;;;;;;;;;;17.40;70.30;;;;;;5021647;28;19931;-85
2022/04/15 09:57:28;;;;;;;;;;;17.50;72.30;;;;;;5015820;28;19929;-84
2022/04/15 09:59:55;;;;;;;;;;;17.70;67.90;;;;;;5022404;28;19914;-85
2022/04/15 10:02:22;;;;;;;;;;;17.80;66.70;;;;;;5003009;28;20375;-84
2022/04/15 10:04:48;;;;;;;;;;;17.90;68.30;;;;;;4994556;28;19918;-85
2022/04/15 10:07:14;;;;;;;;;;;17.80;62.60;;;;;;5024919;28;19918;-85
2022/04/15 10:09:41;;;;;;;;;;;17.80;64.30;;;;;;5020308;28;19987;-85
2022/04/15 10:12:07;;;;;;;;;;;17.60;60.40;;;;;;5025865;28;19953;-85
2022/04/15 10:14:33;;;;;;;;;;;17.50;65.50;;;;;;5015418;28;19968;-85
2022/04/15 10:16:59;;;;;;;;;;;17.50;62.00;;;;;;5011578;28;19945;-85
2022/04/15 10:19:25;;;;;;;;;;;17.50;64.20;;;;;;5016643;28;19956;-84
2022/04/15 10:21:51;;;;;;;;;;;17.60;60.70;;;;;;5013861;28;20426;-86
2022/04/15 10:24:17;;;;;;;;;;;17.80;62.20;;;;;;5018323;28;19921;-86
2022/04/15 10:26:43;;;;;;;;;;;17.80;58.30;;;;;;4994975;28;19921;-87
2022/04/15 10:29:10;;;;;;;;;;;17.80;59.10;;;;;;5013672;28;19968;-86
2022/04/15 10:31:36;;;;;;;;;;;17.90;59.30;;;;;;5016218;28;20000;-87
2022/04/15 10:34:28;;;;;;;;;;;18.10;63.00;;;;;;5014583;28;19997;-87
2022/04/15 10:36:56;;;;;;;;;;;18.00;63.30;;;;;;4998168;28;19913;-87
2022/04/15 10:39:23;;;;;;;;;;;18.00;61.10;;;;;;5006045;28;19922;-86
2022/04/15 10:41:49;;;;;;;;;;;18.00;59.30;;;;;;5007149;28;20457;-87
2022/04/15 10:44:24;;;;;;;;;;;18.00;59.30;;;;;;5003114;28;20650;-87
2022/04/15 10:46:50;;;;;;;;;;;17.90;58.90;;;;;;5008469;28;19913;-87
2022/04/15 10:49:20;;;;;;;;;;;17.90;59.10;;;;;;5019084;28;19964;-85
2022/04/15 10:51:45;;;;;;;;;;;18.00;60.10;;;;;;5015461;28;19928;-86
2022/04/15 10:54:29;;;;;;;;;;;18.10;62.10;;;;;;4991609;28;19914;-86
2022/04/15 10:56:59;;;;;;;;;;;18.30;60.20;;;;;;5032064;23;19995;-85
2022/04/15 11:02:19;;;;;;;;;;;18.60;60.20;;;;;;5057360;28;19920;-85
2022/04/15 11:04:49;;;;;;;;;;;18.90;59.00;;;;;;5050679;28;19917;-87
2022/04/15 11:07:25;;;;;;;;;;;19.00;56.40;;;;;;5051339;28;19925;-87
2022/04/15 11:09:51;;;;;;;;;;;18.70;55.20;;;;;;5048462;28;19923;-87
2022/04/15 11:12:30;;;;;;;;;;;18.50;55.90;;;;;;5034076;28;19917;-86
2022/04/15 11:14:55;;;;;;;;;;;18.30;56.10;;;;;;5052447;28;19939;-87
2022/04/15 11:17:44;;;;;;;;;;;18.30;55.00;;;;;;5049832;28;19921;-87
2022/04/15 11:20:10;;;;;;;;;;;18.30;55.90;;;;;;5061829;28;19913;-86
2022/04/15 11:22:42;;;;;;;;;;;18.20;55.00;;;;;;5049080;28;19939;-86
2022/04/15 11:25:09;;;;;;;;;;;18.30;55.40;;;;;;5034926;28;19923;-86
2022/04/15 11:27:40;;;;;;;;;;;18.40;57.10;;;;;;5052324;28;19921;-86
2022/04/15 11:30:12;;;;;;;;;;;18.50;53.50;;;;;;5050787;28;19921;-86
2022/04/15 11:32:47;;;;;;;;;;;18.50;52.50;;;;;;5052947;28;19920;-86
2022/04/15 11:35:25;;;;;;;;;;;18.70;51.90;;;;;;5051626;28;20426;-86
2022/04/15 11:37:50;;;;;;;;;;;18.80;53.10;;;;;;5052058;28;19923;-86
2022/04/15 11:40:16;;;;;;;;;;;18.90;53.00;;;;;;5051072;28;19991;-87
2022/04/15 11:42:41;;;;;;;;;;;19.00;53.60;;;;;;5051245;28;20027;-87
2022/04/15 11:45:12;;;;;;;;;;;19.20;52.60;;;;;;5054205;28;20349;-87
2022/04/15 11:47:37;;;;;;;;;;;19.40;53.10;;;;;;5049335;28;19935;-86
2022/04/15 11:50:03;;;;;;;;;;;19.60;52.90;;;;;;5049299;28;19913;-87
2022/04/15 11:52:29;;;;;;;;;;;19.70;53.40;;;;;;5048610;28;19936;-87
2022/04/15 11:54:55;;;;;;;;;;;19.80;52.90;;;;;;5035845;28;19917;-88
2022/04/15 11:57:20;;;;;;;;;;;19.90;53.50;;;;;;5065119;28;19924;-87
2022/04/15 11:59:47;;;;;;;;;;;19.80;52.30;;;;;;5048901;28;19919;-87
2022/04/15 12:02:14;;;;;;;;;;;19.70;51.50;;;;;;5062541;28;19931;-87
2022/04/15 12:04:53;;;;;;;;;;;19.60;50.90;;;;;;5029275;28;19917;-85
2022/04/15 12:07:19;;;;;;;;;;;19.70;52.00;;;;;;5052186;28;19924;-86
2022/04/15 12:09:45;;;;;;;;;;;19.80;50.50;;;;;;5031728;28;19913;-88
2022/04/15 12:12:10;;;;;;;;;;;19.70;49.60;;;;;;5048707;28;19916;-87
2022/04/15 12:14:40;;;;;;;;;;;19.80;49.50;;;;;;5030201;28;19979;-89
2022/04/15 12:17:07;;;;;;;;;;;19.60;47.20;;;;;;5047526;28;20297;-88
2022/04/15 12:19:32;;;;;;;;;;;19.30;46.50;;;;;;5038340;28;20351;-89
2022/04/15 12:21:59;;;;;;;;;;;19.10;46.80;;;;;;5078655;28;19920;-90
2022/04/15 12:24:29;;;;;;;;;;;18.90;47.60;;;;;;5052005;28;19944;-89
2022/04/15 12:26:55;;;;;;;;;;;18.80;49.10;;;;;;5034159;28;19917;-89
2022/04/15 12:32:24;;;;;;;;;;;18.80;50.50;;;;;;5051564;28;19923;-88
2022/04/15 12:34:59;;;;;;;;;;;18.70;50.20;;;;;;5051456;28;20284;-89
2022/04/15 12:37:32;;;;;;;;;;;18.60;53.10;;;;;;5066757;28;19979;-88
2022/04/15 12:39:57;;;;;;;;;;;18.50;49.80;;;;;;5059482;28;19909;-88
2022/04/15 12:42:27;;;;;;;;;;;18.60;51.60;;;;;;5033237;28;19921;-91
2022/04/15 12:44:52;;;;;;;;;;;18.80;52.90;;;;;;5032912;28;19916;-90
2022/04/15 12:47:18;;;;;;;;;;;19.00;51.20;;;;;;5041045;28;20019;-89
2022/04/15 12:49:44;;;;;;;;;;;19.10;50.30;;;;;;5032428;28;19940;-89
2022/04/15 12:52:11;;;;;;;;;;;19.20;49.00;;;;;;5049515;28;19917;-90
2022/04/15 12:54:55;;;;;;;;;;;19.30;50.20;;;;;;5033489;28;20013;-89
2022/04/15 12:57:21;;;;;;;;;;;19.30;49.40;;;;;;5049329;28;19920;-89
2022/04/15 12:59:47;;;;;;;;;;;19.30;48.60;;;;;;5066270;28;20158;-88
2022/04/15 13:02:13;;;;;;;;;;;19.30;49.10;;;;;;5049487;28;20515;-89
2022/04/15 13:04:39;;;;;;;;;;;19.40;50.00;;;;;;5058725;28;19992;-88
2022/04/15 13:07:04;;;;;;;;;;;19.40;48.80;;;;;;5050286;28;20000;-87
2022/04/15 13:09:30;;;;;;;;;;;19.30;50.10;;;;;;5032294;28;19931;-88
2022/04/15 13:11:56;;;;;;;;;;;19.20;47.90;;;;;;5037549;28;19963;-90
2022/04/15 13:14:21;;;;;;;;;;;19.10;48.40;;;;;;5050992;28;19933;-87
2022/04/15 13:16:47;;;;;;;;;;;19.10;49.00;;;;;;5049603;28;19939;-89
2022/04/15 13:19:12;;;;;;;;;;;19.00;49.00;;;;;;5032454;28;20293;-88
2022/04/15 13:21:38;;;;;;;;;;;18.90;50.30;;;;;;5041381;28;19917;-88
2022/04/15 13:24:03;;;;;;;;;;;18.90;49.50;;;;;;5049328;28;19967;-90
2022/04/15 13:26:29;;;;;;;;;;;18.80;51.30;;;;;;5049308;28;19916;-90
2022/04/15 13:28:54;;;;;;;;;;;18.80;51.30;;;;;;5065832;28;19917;-89
2022/04/15 13:31:20;;;;;;;;;;;18.80;50.70;;;;;;5050461;28;19980;-89
2022/04/15 13:33:45;;;;;;;;;;;18.80;49.20;;;;;;5049901;28;19920;-89
2022/04/15 13:36:11;;;;;;;;;;;18.70;50.20;;;;;;5051191;28;20304;-89
2022/04/15 13:38:37;;;;;;;;;;;18.60;50.10;;;;;;5049783;28;19920;-90
2022/04/15 13:41:02;;;;;;;;;;;18.40;50.10;;;;;;5049755;28;19955;-89
2022/04/15 13:43:28;;;;;;;;;;;18.30;50.70;;;;;;5033681;28;19921;-88
2022/04/15 13:45:54;;;;;;;;;;;18.10;50.20;;;;;;5066028;28;19928;-88
2022/04/15 13:48:20;;;;;;;;;;;18.00;51.20;;;;;;5066756;28;19943;-88
2022/04/15 13:50:46;;;;;;;;;;;17.90;50.50;;;;;;5062808;28;19917;-87
2022/04/15 13:58:40;;;;;;;;;;;17.80;51.70;;;;;;5054716;28;20288;-87
2022/04/15 14:01:05;;;;;;;;;;;17.90;52.00;;;;;;5052244;28;20316;-87
2022/04/15 14:03:33;;;;;;;;;;;17.90;50.80;;;;;;5043697;28;19927;-87
2022/04/15 14:05:58;;;;;;;;;;;17.90;50.70;;;;;;5050348;28;19971;-87
2022/04/15 14:08:23;;;;;;;;;;;17.90;50.30;;;;;;5034178;28;20425;-87
2022/04/15 14:10:52;;;;;;;;;;;17.80;50.60;;;;;;5035738;28;19923;-87
2022/04/15 14:13:18;;;;;;;;;;;17.90;51.70;;;;;;5051921;28;19913;-87
2022/04/15 14:15:43;;;;;;;;;;;17.90;50.90;;;;;;5065803;28;19928;-87
2022/04/15 14:18:09;;;;;;;;;;;17.90;51.20;;;;;;5040174;28;19921;-89
2022/04/15 14:20:34;;;;;;;;;;;17.90;51.40;;;;;;5058622;28;20542;-89
2022/04/15 14:23:00;;;;;;;;;;;18.00;50.70;;;;;;5051278;28;19917;-89
2022/04/15 14:25:25;;;;;;;;;;;18.00;51.00;;;;;;5058898;28;19913;-89
2022/04/15 14:27:52;;;;;;;;;;;18.00;51.50;;;;;;5051054;28;19917;-89
2022/04/15 14:30:18;;;;;;;;;;;18.10;50.20;;;;;;5034367;28;20015;-89